createdAt,value
2018-05-25T00:01:49.056Z,73.23
2018-05-25T00:04:15.686Z,73.29
2018-05-25T00:06:42.466Z,73.49
2018-05-25T00:09:10.020Z,73.49
2018-05-25T00:11:36.689Z,73.50
2018-05-25T00:14:03.320Z,73.92
2018-05-25T00:16:30.692Z,73.98
2018-05-25T00:18:57.388Z,73.71
2018-05-25T00:21:24.034Z,73.92
2018-05-25T00:23:50.711Z,73.65
2018-05-25T00:26:17.469Z,74.02
2018-05-25T00:28:44.147Z,74.43
2018-05-25T00:31:10.806Z,74.41
2018-05-25T00:33:38.430Z,74.77
2018-05-25T00:36:05.107Z,74.71
2018-05-25T00:38:32.525Z,74.00
2018-05-25T00:40:59.182Z,74.38
2018-05-25T00:43:26.021Z,74.40
2018-05-25T00:45:52.692Z,74.44
2018-05-25T00:48:20.241Z,74.31
2018-05-25T00:50:47.683Z,74.30
2018-05-25T00:53:14.351Z,74.22
2018-05-25T00:55:41.107Z,73.64
2018-05-25T00:58:07.739Z,73.82
2018-05-25T01:00:34.694Z,74.16
2018-05-25T01:03:01.469Z,74.26
2018-05-25T01:05:28.366Z,74.05
2018-05-25T01:07:55.036Z,74.33
2018-05-25T01:10:21.766Z,74.16
2018-05-25T01:12:48.421Z,74.25
2018-05-25T01:15:15.120Z,74.08
2018-05-25T01:17:42.593Z,73.65
2018-05-25T01:20:09.274Z,74.00
2018-05-25T01:22:35.937Z,74.35
2018-05-25T01:25:03.411Z,73.85
2018-05-25T01:27:30.775Z,73.96
2018-05-25T01:29:57.547Z,74.34
2018-05-25T01:32:24.189Z,74.36
2018-05-25T01:34:50.805Z,74.52
2018-05-25T01:37:17.516Z,74.40
2018-05-25T01:39:45.058Z,74.40
2018-05-25T01:42:11.725Z,73.90
2018-05-25T01:44:38.416Z,74.00
2018-05-25T01:47:05.053Z,74.62
2018-05-25T01:49:31.762Z,74.67
2018-05-25T01:51:58.412Z,74.78
2018-05-25T01:54:25.061Z,74.90
2018-05-25T01:56:51.892Z,74.76
2018-05-25T01:59:18.661Z,74.36
2018-05-25T02:01:45.328Z,74.26
2018-05-25T02:04:12.746Z,74.23
2018-05-25T02:06:39.495Z,74.70
2018-05-25T02:09:06.217Z,74.87
2018-05-25T02:11:32.856Z,75.11
2018-05-25T02:13:59.582Z,75.09
2018-05-25T02:16:26.233Z,75.39
2018-05-25T02:18:53.073Z,75.44
2018-05-25T02:21:19.707Z,75.48
2018-05-25T02:23:46.359Z,75.43
2018-05-25T02:26:13.012Z,75.23
2018-05-25T02:28:39.888Z,75.47
2018-05-25T02:31:07.409Z,75.81
2018-05-25T02:33:34.082Z,75.94
2018-05-25T02:36:00.748Z,75.69
2018-05-25T02:38:27.396Z,76.09
2018-05-25T02:40:54.275Z,75.97
2018-05-25T02:43:20.918Z,75.79
2018-05-25T02:45:47.737Z,75.87
2018-05-25T02:48:14.478Z,75.94
2018-05-25T02:50:41.159Z,76.23
2018-05-25T02:53:07.830Z,76.36
2018-05-25T02:55:34.502Z,76.68
2018-05-25T02:58:01.145Z,76.42
2018-05-25T03:00:27.794Z,76.65
2018-05-25T03:02:54.442Z,76.82
2018-05-25T03:05:21.061Z,77.11
2018-05-25T03:07:47.909Z,77.25
2018-05-25T03:10:14.574Z,77.18
2018-05-25T03:12:41.218Z,77.52
2018-05-25T03:15:08.569Z,77.49
2018-05-25T03:17:35.252Z,77.33
2018-05-25T03:20:01.934Z,77.64
2018-05-25T03:22:28.782Z,77.89
2018-05-25T03:24:55.488Z,77.81
2018-05-25T03:27:22.118Z,77.73
2018-05-25T03:29:48.976Z,77.52
2018-05-25T03:32:15.614Z,77.64
2018-05-25T03:34:42.241Z,77.75
2018-05-25T03:37:08.938Z,77.71
2018-05-25T03:39:36.325Z,77.73
2018-05-25T03:42:02.982Z,77.62
2018-05-25T03:44:29.592Z,77.78
2018-05-25T03:46:56.276Z,77.92
2018-05-25T03:49:22.903Z,78.02
2018-05-25T03:51:49.671Z,78.00
2018-05-25T03:54:16.317Z,78.04
2018-05-25T03:56:42.963Z,78.08
2018-05-25T03:59:28.806Z,77.55
2018-05-25T04:01:58.239Z,77.90
2018-05-25T04:04:26.450Z,77.74
2018-05-25T04:06:53.113Z,77.68
2018-05-25T04:09:19.857Z,77.59
2018-05-25T04:11:46.598Z,77.94
2018-05-25T04:14:13.280Z,77.58
2018-05-25T04:16:40.214Z,77.63
2018-05-25T04:19:07.239Z,77.53
2018-05-25T04:21:33.989Z,77.40
2018-05-25T04:24:00.800Z,77.40
2018-05-25T04:26:27.438Z,77.41
2018-05-25T04:28:54.201Z,77.29
2018-05-25T04:31:20.853Z,77.29
2018-05-25T04:33:47.475Z,77.21
2018-05-25T04:36:14.250Z,77.11
2018-05-25T04:38:40.873Z,76.90
2018-05-25T04:41:07.648Z,76.45
2018-05-25T04:43:35.086Z,75.84
2018-05-25T04:46:01.854Z,75.94
2018-05-25T04:48:29.417Z,76.20
2018-05-25T04:50:56.795Z,75.99
2018-05-25T04:53:23.433Z,75.50
2018-05-25T04:55:50.309Z,74.71
2018-05-25T04:58:16.942Z,73.63
2018-05-25T05:00:43.751Z,73.47
2018-05-25T05:03:10.358Z,73.36
2018-05-25T05:05:37.107Z,73.23
2018-05-25T05:08:04.468Z,72.44
2018-05-25T05:10:31.952Z,72.48
2018-05-25T05:12:58.810Z,72.05
2018-05-25T05:15:25.770Z,71.14
2018-05-25T05:17:52.397Z,71.02
2018-05-25T05:20:19.012Z,70.69
2018-05-25T05:22:46.572Z,70.72
2018-05-25T05:25:13.334Z,70.23
2018-05-25T05:27:40.280Z,70.09
2018-05-25T05:30:06.923Z,69.87
2018-05-25T05:32:33.913Z,69.74
2018-05-25T05:35:01.277Z,69.34
2018-05-25T05:37:28.723Z,69.00
2018-05-25T05:39:55.351Z,68.82
2018-05-25T05:42:22.201Z,68.86
2018-05-25T05:44:49.566Z,68.74
2018-05-25T05:47:17.109Z,68.79
2018-05-25T05:49:43.749Z,68.72
2018-05-25T05:52:10.542Z,68.30
2018-05-25T05:54:37.214Z,67.62
2018-05-25T05:57:03.972Z,67.30
2018-05-25T05:59:30.595Z,66.76
2018-05-25T06:01:57.373Z,66.56
2018-05-25T06:04:24.901Z,66.48
2018-05-25T06:06:51.544Z,66.11
2018-05-25T06:09:18.186Z,66.10
2018-05-25T06:11:45.009Z,66.39
2018-05-25T06:14:11.729Z,66.39
2018-05-25T06:16:38.454Z,66.43
2018-05-25T06:19:05.729Z,66.37
2018-05-25T06:21:32.388Z,66.11
2018-05-25T06:23:59.103Z,65.88
2018-05-25T06:26:25.871Z,65.70
2018-05-25T06:28:52.512Z,65.59
2018-05-25T06:31:19.189Z,65.55
2018-05-25T06:33:45.996Z,65.12
2018-05-25T06:36:12.661Z,64.93
2018-05-25T06:38:40.213Z,64.63
2018-05-25T06:41:07.874Z,64.55
2018-05-25T06:43:35.265Z,64.47
2018-05-25T06:46:01.918Z,64.86
2018-05-25T06:48:28.731Z,65.11
2018-05-25T06:50:56.160Z,65.03
2018-05-25T06:53:23.532Z,64.98
2018-05-25T06:55:51.144Z,64.91
2018-05-25T06:58:17.822Z,64.53
2018-05-25T07:00:44.459Z,64.78
2018-05-25T07:03:11.241Z,64.83
2018-05-25T07:05:37.874Z,64.52
2018-05-25T07:08:04.557Z,64.68
2018-05-25T07:10:31.190Z,64.40
2018-05-25T07:12:57.821Z,64.37
2018-05-25T07:15:24.490Z,64.12
2018-05-25T07:17:51.152Z,64.29
2018-05-25T07:20:18.728Z,64.32
2018-05-25T07:22:45.479Z,63.96
2018-05-25T07:25:13.477Z,63.32
2018-05-25T07:27:40.216Z,63.66
2018-05-25T07:30:09.000Z,63.73
2018-05-25T07:32:35.873Z,63.63
2018-05-25T07:35:02.677Z,63.35
2018-05-25T07:37:29.336Z,63.57
2018-05-25T07:39:56.051Z,64.08
2018-05-25T07:42:22.863Z,63.33
2018-05-25T07:44:50.477Z,62.92
2018-05-25T07:47:17.284Z,63.04
2018-05-25T07:49:44.908Z,63.29
2018-05-25T07:52:11.637Z,62.75
2018-05-25T07:54:38.468Z,62.02
2018-05-25T07:57:05.152Z,61.84
2018-05-25T07:59:32.646Z,61.10
2018-05-25T08:01:59.311Z,62.46
2018-05-25T08:04:25.995Z,63.10
2018-05-25T08:06:52.650Z,62.71
2018-05-25T08:09:20.009Z,62.46
2018-05-25T08:11:46.828Z,62.38
2018-05-25T08:14:14.269Z,62.12
2018-05-25T08:16:42.374Z,62.27
2018-05-25T08:19:10.786Z,61.05
2018-05-25T08:21:37.718Z,60.70
2018-05-25T08:24:05.922Z,59.79
2018-05-25T08:26:32.572Z,60.09
2018-05-25T08:28:59.238Z,59.49
2018-05-25T08:31:25.969Z,59.03
2018-05-25T08:33:52.642Z,58.74
2018-05-25T08:36:19.290Z,58.12
2018-05-25T08:38:45.978Z,57.87
2018-05-25T08:41:13.418Z,58.32
2018-05-25T08:43:40.063Z,58.05
2018-05-25T08:46:06.712Z,57.62
2018-05-25T08:48:34.153Z,58.26
2018-05-25T08:51:00.812Z,58.64
2018-05-25T08:53:28.226Z,58.85
2018-05-25T08:55:54.878Z,58.69
2018-05-25T08:58:21.515Z,59.91
2018-05-25T09:00:48.189Z,60.28
2018-05-25T09:03:15.617Z,60.41
2018-05-25T09:05:42.425Z,60.55
2018-05-25T09:08:09.192Z,60.63
2018-05-25T09:10:35.850Z,60.51
2018-05-25T09:13:03.465Z,61.15
2018-05-25T09:15:31.041Z,61.42
2018-05-25T09:17:57.810Z,62.05
2018-05-25T09:20:24.474Z,61.54
2018-05-25T09:22:51.858Z,61.94
2018-05-25T09:25:19.425Z,60.87
2018-05-25T09:27:48.370Z,60.82
2018-05-25T09:30:20.504Z,59.89
2018-05-25T09:32:52.610Z,59.37
2018-05-25T09:35:24.465Z,58.89
2018-05-25T09:37:55.811Z,58.91
2018-05-25T09:40:25.695Z,57.86
2018-05-25T09:42:54.435Z,57.49
2018-05-25T09:45:24.738Z,57.41
2018-05-25T09:47:54.810Z,57.40
2018-05-25T09:50:23.427Z,56.50
2018-05-25T09:52:51.801Z,56.57
2018-05-25T09:55:18.692Z,56.32
2018-05-25T09:57:57.115Z,56.80
2018-05-25T10:00:24.635Z,56.44
2018-05-25T10:02:51.325Z,55.93
2018-05-25T10:05:18.721Z,55.89
2018-05-25T10:07:45.414Z,54.74
2018-05-25T10:10:12.850Z,54.45
2018-05-25T10:12:39.590Z,54.13
2018-05-25T10:15:06.245Z,53.83
2018-05-25T10:17:33.637Z,53.52
2018-05-25T10:20:00.305Z,54.00
2018-05-25T10:22:26.984Z,53.90
2018-05-25T10:24:54.397Z,54.20
2018-05-25T10:27:21.115Z,54.61
2018-05-25T10:29:48.020Z,54.26
2018-05-25T10:32:15.449Z,53.76
2018-05-25T10:34:42.113Z,54.39
2018-05-25T10:37:09.497Z,53.78
2018-05-25T10:39:36.220Z,55.14
2018-05-25T10:42:03.667Z,55.37
2018-05-25T10:44:31.438Z,54.82
2018-05-25T10:46:58.848Z,53.24
2018-05-25T10:49:25.581Z,51.84
2018-05-25T10:51:55.423Z,52.10
2018-05-25T10:54:22.338Z,51.32
2018-05-25T10:56:49.006Z,50.21
2018-05-25T10:59:15.817Z,49.58
2018-05-25T11:01:42.606Z,48.96
2018-05-25T11:04:09.240Z,48.78
2018-05-25T11:06:36.085Z,50.18
2018-05-25T11:09:07.547Z,50.59
2018-05-25T11:11:38.587Z,51.14
2018-05-25T11:14:07.578Z,52.08
2018-05-25T11:16:38.540Z,53.66
2018-05-25T11:19:07.383Z,54.18
2018-05-25T11:21:39.433Z,53.69
2018-05-25T11:24:10.097Z,52.94
2018-05-25T11:26:42.275Z,52.88
2018-05-25T11:29:11.496Z,53.40
2018-05-25T11:31:42.297Z,52.76
2018-05-25T11:34:13.053Z,52.79
2018-05-25T11:36:40.093Z,53.67
2018-05-25T11:39:06.753Z,53.39
2018-05-25T11:41:34.282Z,53.09
2018-05-25T11:44:00.960Z,52.62
2018-05-25T11:46:28.323Z,52.83
2018-05-25T11:48:55.009Z,52.51
2018-05-25T11:51:21.706Z,51.16
2018-05-25T11:53:48.363Z,51.83
2018-05-25T11:56:15.108Z,50.43
2018-05-25T11:58:41.776Z,50.17
2018-05-25T12:01:08.637Z,50.78
2018-05-25T12:03:35.298Z,51.92
2018-05-25T12:06:02.669Z,52.04
2018-05-25T12:08:29.832Z,51.81
2018-05-25T12:10:56.680Z,51.54
2018-05-25T12:13:23.392Z,51.89
2018-05-25T12:15:50.899Z,52.06
2018-05-25T12:18:17.591Z,52.03
2018-05-25T12:20:44.319Z,51.36
2018-05-25T12:23:11.861Z,50.54
2018-05-25T12:25:38.777Z,50.14
2018-05-25T12:28:05.510Z,49.85
2018-05-25T12:30:33.591Z,49.34
2018-05-25T12:33:00.225Z,50.32
2018-05-25T12:35:26.998Z,51.50
2018-05-25T12:37:53.662Z,51.05
2018-05-25T12:40:21.038Z,49.62
2018-05-25T12:42:47.719Z,50.41
2018-05-25T12:45:14.905Z,50.43
2018-05-25T12:47:42.309Z,49.95
2018-05-25T12:50:09.002Z,48.95
2018-05-25T12:52:36.422Z,48.73
2018-05-25T12:55:03.956Z,47.35
2018-05-25T12:57:30.787Z,46.47
2018-05-25T12:59:57.497Z,46.45
2018-05-25T13:02:25.018Z,46.28
2018-05-25T13:04:52.448Z,47.04
2018-05-25T13:07:19.149Z,47.31
2018-05-25T13:09:46.560Z,48.55
2018-05-25T13:12:13.258Z,48.51
2018-05-25T13:14:41.424Z,48.31
2018-05-25T13:17:08.816Z,48.89
2018-05-25T13:19:35.607Z,49.68
2018-05-25T13:22:02.277Z,50.34
2018-05-25T13:24:28.913Z,50.70
2018-05-25T13:26:55.660Z,50.69
2018-05-25T13:29:22.285Z,50.18
2018-05-25T13:31:49.699Z,50.31
2018-05-25T13:34:16.471Z,50.91
2018-05-25T13:36:43.937Z,51.25
2018-05-25T13:39:11.309Z,50.37
2018-05-25T13:41:38.133Z,50.74
2018-05-25T13:44:05.508Z,50.15
2018-05-25T13:46:32.168Z,49.85
2018-05-25T13:48:58.821Z,49.45
2018-05-25T13:51:25.457Z,49.39
2018-05-25T13:53:52.136Z,49.49
2018-05-25T13:56:19.523Z,48.69
2018-05-25T13:58:46.378Z,48.28
2018-05-25T14:01:13.021Z,47.59
2018-05-25T14:03:39.764Z,45.55
2018-05-25T14:06:06.617Z,44.93
2018-05-25T14:08:33.341Z,42.63
2018-05-25T14:11:00.056Z,42.42
2018-05-25T14:13:27.518Z,41.50
2018-05-25T14:15:54.235Z,42.25
2018-05-25T14:18:20.866Z,43.48
2018-05-25T14:20:47.634Z,44.36
2018-05-25T14:23:15.148Z,44.34
2018-05-25T14:25:41.844Z,44.18
2018-05-25T14:28:08.497Z,45.52
2018-05-25T14:30:35.200Z,44.76
2018-05-25T14:33:02.756Z,45.20
2018-05-25T14:35:30.292Z,47.06
2018-05-25T14:37:56.939Z,47.38
2018-05-25T14:40:23.644Z,47.98
2018-05-25T14:42:50.391Z,48.20
2018-05-25T14:45:17.232Z,48.38
2018-05-25T14:47:43.908Z,48.81
2018-05-25T14:50:10.560Z,49.07
2018-05-25T14:52:38.157Z,48.15
2018-05-25T14:55:04.873Z,48.03
2018-05-25T14:57:32.306Z,48.96
2018-05-25T14:59:58.917Z,49.62
2018-05-25T15:02:25.723Z,48.82
2018-05-25T15:04:52.681Z,49.00
2018-05-25T15:07:19.502Z,47.06
2018-05-25T15:09:46.247Z,48.08
2018-05-25T15:12:12.903Z,49.15
2018-05-25T15:14:39.559Z,48.94
2018-05-25T15:17:06.432Z,48.71
2018-05-25T15:19:33.116Z,46.84
2018-05-25T15:21:59.915Z,47.67
2018-05-25T15:24:26.634Z,47.98
2018-05-25T15:26:53.349Z,48.40
2018-05-25T15:29:20.024Z,49.17
2018-05-25T15:31:48.173Z,49.60
2018-05-25T15:34:14.846Z,50.11
2018-05-25T15:36:41.516Z,50.18
2018-05-25T15:39:08.911Z,50.42
2018-05-25T15:41:35.737Z,50.91
2018-05-25T15:44:02.358Z,52.56
2018-05-25T21:07:25.283Z,64.31
2018-05-25T21:09:52.128Z,63.73
2018-05-25T21:12:18.892Z,63.77
2018-05-25T21:14:45.681Z,63.35
2018-05-25T21:17:12.388Z,63.05
2018-05-25T21:19:39.785Z,63.09
2018-05-25T21:22:06.557Z,62.98
2018-05-25T21:24:33.210Z,63.39
2018-05-25T21:26:59.899Z,63.95
2018-05-25T21:29:26.603Z,63.84
2018-05-25T21:31:55.408Z,63.79
2018-05-25T21:34:22.929Z,64.09
2018-05-25T21:36:49.808Z,64.09
2018-05-25T21:39:16.453Z,64.21
2018-05-25T21:41:44.050Z,64.37
2018-05-25T21:44:10.829Z,64.87
2018-05-25T21:46:37.568Z,65.18
2018-05-25T21:49:04.271Z,64.70
2018-05-25T21:51:30.985Z,64.67
2018-05-25T21:53:58.485Z,64.81
2018-05-25T21:56:25.250Z,64.83
2018-05-25T21:58:51.982Z,65.37
2018-05-25T22:01:18.665Z,65.51
2018-05-25T22:03:46.370Z,65.99
2018-05-25T22:06:13.220Z,66.05
2018-05-25T22:08:40.823Z,66.00
2018-05-25T22:11:08.322Z,66.42
2018-05-25T22:13:35.039Z,66.81
2018-05-25T22:16:01.824Z,67.01
2018-05-25T22:18:28.527Z,67.04
2018-05-25T22:20:55.429Z,67.18
2018-05-25T22:23:22.178Z,66.83
2018-05-25T22:25:48.916Z,67.38
2018-05-25T22:28:15.667Z,67.93
2018-05-25T22:30:42.390Z,67.78
2018-05-25T22:33:09.202Z,68.27
2018-05-25T22:35:35.888Z,68.35
2018-05-25T22:38:02.633Z,68.17
2018-05-25T22:40:30.077Z,68.44
2018-05-25T22:43:14.942Z,68.52
2018-05-25T22:45:59.845Z,68.84
2018-05-25T22:48:45.677Z,68.87
2018-05-25T22:51:30.711Z,68.74
2018-05-25T22:54:02.819Z,69.02
2018-05-25T22:56:29.596Z,68.79
2018-05-25T22:58:57.173Z,69.37
2018-05-25T23:01:23.881Z,69.61
2018-05-25T23:03:50.841Z,69.87
2018-05-25T23:06:18.253Z,69.84
2018-05-25T23:08:45.039Z,69.97
2018-05-25T23:11:11.780Z,70.00
2018-05-25T23:13:39.460Z,70.23
2018-05-25T23:16:06.168Z,70.52
2018-05-25T23:18:32.925Z,70.60
2018-05-25T23:20:59.573Z,70.78
2018-05-25T23:23:26.482Z,70.92
2018-05-25T23:25:53.209Z,70.33
2018-05-25T23:28:19.941Z,69.80
2018-05-25T23:30:47.986Z,70.16
2018-05-25T23:33:14.700Z,70.71
2018-05-25T23:35:42.113Z,70.35
2018-05-25T23:38:08.799Z,70.13
2018-05-25T23:40:36.517Z,70.85
2018-05-25T23:43:03.353Z,71.25
2018-05-25T23:45:30.122Z,71.30
2018-05-25T23:47:56.853Z,71.35
2018-05-25T23:50:23.625Z,71.44
2018-05-25T23:52:51.147Z,71.46
2018-05-25T23:55:17.804Z,71.54
2018-05-25T23:57:44.452Z,71.80
